Time;durP1;ratioP1;P1;durP2;ratioP2;P2;SDS_P1;SDS_P2;PMS_P1;PMS_P2;Temp;Humidity;BMP_temperature;BMP_pressure;BME280_temperature;BME280_humidity;BME280_pressure;Samples;Min_cycle;Max_cycle;Signal;HPM_P1;HPM_P2
2022/02/14 00:01:17;;;;;;;10.80;7.30;;;;;;;1.72;67.11;94094.97;5092394;28;20386;-35
2022/02/14 00:03:42;;;;;;;17.83;9.35;;;;;;;1.74;67.40;94108.09;5091703;28;20107;-36
2022/02/14 00:06:08;;;;;;;17.90;11.00;;;;;;;1.82;67.36;94107.22;5092121;28;20425;-37
2022/02/14 00:08:33;;;;;;;20.40;10.30;;;;;;;1.77;66.34;94104.44;5092468;28;20115;-36
2022/02/14 00:10:58;;;;;;;14.00;8.07;;;;;;;1.65;66.09;94105.50;5103060;28;20119;-39
2022/02/14 00:13:24;;;;;;;22.73;9.38;;;;;;;1.74;66.35;94097.19;5112498;28;20035;-36
2022/02/14 00:15:52;;;;;;;13.15;6.72;;;;;;;1.74;65.65;94097.19;5112314;27;20027;-37
2022/02/14 00:18:18;;;;;;;11.07;6.47;;;;;;;1.70;65.76;94083.03;5112304;28;20027;-40
2022/02/14 00:20:43;;;;;;;17.17;7.97;;;;;;;1.70;66.26;94096.66;5112366;28;20073;-38
2022/02/14 00:23:09;;;;;;;11.20;6.95;;;;;;;1.73;65.72;94084.84;5112197;28;20092;-39
2022/02/14 00:25:34;;;;;;;12.13;7.32;;;;;;;1.48;66.00;94083.50;5112216;27;20035;-38
2022/02/14 00:28:00;;;;;;;13.68;7.82;;;;;;;1.49;66.66;94091.19;5112299;27;20023;-38
2022/02/14 00:30:25;;;;;;;9.93;7.40;;;;;;;1.42;66.86;94085.41;5112417;28;20016;-37
2022/02/14 00:32:51;;;;;;;10.60;6.82;;;;;;;1.20;67.54;94083.13;5112294;28;20401;-39
2022/02/14 00:35:16;;;;;;;10.55;6.85;;;;;;;1.18;68.35;94082.84;5112307;28;20028;-33
2022/02/14 00:37:42;;;;;;;12.02;7.75;;;;;;;1.06;68.68;94069.56;5094019;27;20440;-33
2022/02/14 00:40:09;;;;;;;11.23;7.30;;;;;;;1.04;68.96;94096.50;5091518;28;20403;-36
2022/02/14 00:42:34;;;;;;;12.63;7.20;;;;;;;1.09;68.84;94088.41;5090291;28;20023;-33
2022/02/14 00:45:00;;;;;;;14.13;8.80;;;;;;;1.01;69.26;94084.59;5091680;28;20047;-32
2022/02/14 00:47:25;;;;;;;15.60;10.10;;;;;;;1.11;68.93;94093.38;5091332;28;20550;-34
2022/02/14 00:49:51;;;;;;;14.98;7.97;;;;;;;1.20;68.19;94087.81;5091269;28;20028;-34
2022/02/14 00:52:17;;;;;;;14.25;9.15;;;;;;;1.10;68.58;94091.88;5091603;28;20115;-34
2022/02/14 00:54:43;;;;;;;14.57;8.52;;;;;;;1.22;67.98;94086.13;5091531;28;20529;-32
2022/02/14 00:57:09;;;;;;;11.70;8.07;;;;;;;1.13;68.10;94078.06;5091506;28;20020;-36
2022/02/14 00:59:35;;;;;;;14.85;8.18;;;;;;;1.21;68.67;94078.44;5091428;28;20028;-38
2022/02/14 01:02:00;;;;;;;15.65;9.07;;;;;;;1.10;68.52;94068.16;5091363;28;20043;-32
2022/02/14 01:04:26;;;;;;;16.30;10.10;;;;;;;1.12;68.85;94081.28;5091412;28;20043;-35
2022/02/14 01:06:51;;;;;;;14.43;8.27;;;;;;;1.24;67.70;94078.25;5099023;28;20417;-32
2022/02/14 01:09:17;;;;;;;13.95;9.65;;;;;;;1.26;67.98;94070.34;5110143;28;20489;-33
2022/02/14 01:11:42;;;;;;;13.32;8.63;;;;;;;1.11;68.75;94063.44;5111568;28;20020;-33
2022/02/14 01:14:08;;;;;;;12.55;7.47;;;;;;;1.14;69.15;94068.72;5111566;28;20015;-37
2022/02/14 01:16:33;;;;;;;17.48;12.25;;;;;;;1.22;68.91;94069.81;5111252;28;20011;-34
2022/02/14 01:18:59;;;;;;;12.02;8.15;;;;;;;1.23;68.91;94062.41;5111202;28;20024;-34
2022/02/14 01:21:24;;;;;;;16.55;9.05;;;;;;;1.18;68.34;94050.22;5111245;28;20028;-40
2022/02/14 01:23:50;;;;;;;12.40;8.43;;;;;;;1.17;68.05;94059.59;5111001;28;20024;-38
2022/02/14 01:26:15;;;;;;;17.33;8.27;;;;;;;1.34;67.99;94063.28;5111061;28;20020;-38
2022/02/14 01:28:41;;;;;;;16.45;8.18;;;;;;;1.41;67.75;94054.72;5111295;28;20019;-40
2022/02/14 01:31:06;;;;;;;11.73;8.38;;;;;;;1.47;68.12;94052.09;5111265;28;20027;-37
2022/02/14 01:33:32;;;;;;;11.95;7.60;;;;;;;1.50;67.49;94051.88;5111233;28;20519;-36
2022/02/14 01:35:57;;;;;;;15.40;8.23;;;;;;;1.45;67.21;94065.44;5107906;28;20597;-36
2022/02/14 01:38:23;;;;;;;17.33;9.38;;;;;;;1.37;67.74;94045.28;5090515;28;20052;-38
2022/02/14 01:40:48;;;;;;;14.18;8.98;;;;;;;1.28;68.03;94048.13;5090793;28;20020;-34
2022/02/14 01:43:15;;;;;;;14.85;9.10;;;;;;;1.26;69.29;94043.16;5090529;28;20024;-37
2022/02/14 01:45:44;;;;;;;13.85;9.20;;;;;;;1.25;68.72;94046.34;5090634;28;20098;-33
2022/02/14 01:48:10;;;;;;;;;;;;;;;1.22;69.10;94039.88;5091294;28;20050;-36
2022/02/14 01:50:36;;;;;;;16.77;9.52;;;;;;;1.14;69.06;94043.47;5090533;28;19908;-33
2022/02/14 01:53:02;;;;;;;16.90;9.85;;;;;;;1.01;69.62;94043.81;5090658;28;20024;-35
2022/02/14 01:55:28;;;;;;;14.43;8.82;;;;;;;1.13;68.53;94040.00;5090688;28;20023;-37
2022/02/14 01:57:53;;;;;;;13.95;9.07;;;;;;;1.12;68.69;94033.09;5090509;28;20103;-36
2022/02/14 02:00:20;;;;;;;16.15;10.68;;;;;;;1.21;69.37;94035.66;5090258;28;20081;-33
2022/02/14 02:02:46;;;;;;;18.10;9.13;;;;;;;1.25;69.24;94038.94;5095322;28;20031;-34
2022/02/14 02:05:12;;;;;;;14.32;8.88;;;;;;;1.26;69.25;94026.84;5110900;28;20043;-35
2022/02/14 02:07:37;;;;;;;14.10;9.82;;;;;;;1.13;69.25;94012.81;5110563;28;20030;-38
2022/02/14 02:10:06;;;;;;;18.48;9.50;;;;;;;0.70;70.18;94009.00;5109480;28;20055;-34
2022/02/14 02:12:33;;;;;;;20.67;12.68;;;;;;;0.86;70.20;94028.75;5110519;28;20020;-36
2022/02/14 02:15:00;;;;;;;17.30;9.95;;;;;;;1.05;69.03;94024.56;5110453;28;20058;-34
2022/02/14 02:17:30;;;;;;;13.40;9.13;;;;;;;0.92;69.52;94013.25;5110754;28;20016;-35
2022/02/14 02:19:55;;;;;;;11.60;7.50;;;;;;;1.09;69.37;94019.66;5110747;28;20034;-36
2022/02/14 02:22:21;;;;;;;10.82;6.78;;;;;;;0.98;69.47;94016.78;5110695;28;20408;-33
2022/02/14 02:24:54;;;;;;;14.18;7.80;;;;;;;1.04;68.90;94004.03;5110698;28;20073;-37
2022/02/14 02:27:21;;;;;;;13.70;7.38;;;;;;;0.96;69.57;94002.94;5113611;28;20030;-40
2022/02/14 02:29:47;;;;;;;11.77;6.72;;;;;;;0.97;69.63;94009.88;5114411;28;20028;-36
2022/02/14 02:32:14;;;;;;;11.48;7.15;;;;;;;0.98;69.71;94009.41;5114965;28;20084;-41
2022/02/14 02:34:42;;;;;;;16.50;9.88;;;;;;;0.92;70.54;94005.84;5114658;28;20024;-40
2022/02/14 02:37:09;;;;;;;13.93;8.13;;;;;;;0.99;69.66;94005.47;5114013;28;20023;-40
2022/02/14 02:39:36;;;;;;;30.48;10.40;;;;;;;1.08;69.85;94005.34;5114549;28;20071;-39
2022/02/14 02:42:05;;;;;;;19.35;9.32;;;;;;;1.12;69.83;94003.19;5114175;28;20023;-36
2022/02/14 02:44:34;;;;;;;;;;;;;;;1.20;69.60;94001.53;5114967;28;20062;-39
2022/02/14 02:47:00;;;;;;;14.40;8.85;;;;;;;1.12;69.19;93999.69;5114060;28;19912;-40
2022/02/14 02:49:26;;;;;;;12.55;7.22;;;;;;;0.96;68.68;93987.38;5114415;28;20101;-33
2022/02/14 02:51:52;;;;;;;12.85;8.23;;;;;;;0.96;69.47;94009.13;5114304;28;20469;-36
2022/02/14 02:54:19;;;;;;;12.93;8.90;;;;;;;0.93;69.91;94001.16;5114030;28;20031;-36
2022/02/14 02:56:47;;;;;;;11.88;6.93;;;;;;;0.95;69.36;94004.91;5113900;28;20750;-35
2022/02/14 02:59:13;;;;;;;12.00;6.30;;;;;;;0.92;69.44;94002.38;5107232;28;20024;-34
2022/02/14 03:01:40;;;;;;;9.80;6.18;;;;;;;0.92;69.06;94000.41;5093527;28;20055;-36
2022/02/14 03:04:07;;;;;;;11.30;6.63;;;;;;;0.60;69.15;93996.00;5093654;28;20038;-37
2022/02/14 03:06:33;;;;;;;12.38;8.13;;;;;;;0.56;69.71;94009.75;5093509;28;20024;-35
2022/02/14 03:08:58;;;;;;;12.05;7.13;;;;;;;0.51;70.24;94004.25;5093693;28;20097;-35
2022/02/14 03:11:24;;;;;;;9.52;6.63;;;;;;;0.56;70.20;94001.59;5093329;28;20032;-35
2022/02/14 03:13:51;;;;;;;11.80;7.05;;;;;;;0.62;70.77;93999.00;5093222;28;20020;-35
2022/02/14 03:16:17;;;;;;;13.55;7.97;;;;;;;0.47;70.43;93985.44;5093526;28;20028;-35
2022/02/14 03:18:43;;;;;;;12.70;8.82;;;;;;;0.53;71.28;93994.41;5093089;28;20063;-34
2022/02/14 03:21:09;;;;;;;18.42;10.90;;;;;;;0.45;71.46;93997.97;5093122;28;20056;-33
2022/02/14 03:23:35;;;;;;;18.02;10.32;;;;;;;0.56;70.81;93990.75;5093021;28;20030;-35
2022/02/14 03:26:00;;;;;;;18.17;10.45;;;;;;;0.60;71.28;93996.00;5092935;28;20059;-35
2022/02/14 03:28:26;;;;;;;15.48;10.07;;;;;;;0.61;71.57;93976.50;5093271;28;20035;-34
2022/02/14 03:30:52;;;;;;;16.15;9.50;;;;;;;0.70;71.43;93989.97;5093112;28;20032;-35
2022/02/14 03:33:17;;;;;;;20.67;9.95;;;;;;;0.81;71.76;93981.22;5093261;28;20497;-38
2022/02/14 03:35:43;;;;;;;15.32;10.63;;;;;;;0.78;71.87;93979.44;5092435;28;20538;-39
2022/02/14 03:38:08;;;;;;;15.32;10.25;;;;;;;0.78;71.52;93976.72;5091458;28;20043;-37
2022/02/14 03:40:34;;;;;;;16.02;10.68;;;;;;;0.83;71.47;93975.31;5093006;28;20032;-37
2022/02/14 03:43:03;;;;;;;17.15;10.32;;;;;;;0.91;71.42;93974.44;5092900;28;20414;-38
2022/02/14 03:45:30;;;;;;;18.97;10.67;;;;;;;0.91;70.57;93971.00;5092722;28;20481;-38
2022/02/14 03:47:56;;;;;;;24.45;14.38;;;;;;;0.94;70.61;93972.75;5092566;28;20873;-36
2022/02/14 03:50:22;;;;;;;28.40;14.27;;;;;;;0.99;70.23;93975.56;5092819;28;20024;-37
2022/02/14 03:52:47;;;;;;;20.83;13.15;;;;;;;1.06;70.45;93968.97;5091133;28;20508;-39
2022/02/14 03:55:12;;;;;;;28.92;14.93;;;;;;;1.01;70.55;93978.56;5097174;28;20031;-36
2022/02/14 03:57:38;;;;;;;20.63;13.30;;;;;;;1.08;69.74;93983.59;5113107;28;20022;-37
2022/02/14 04:00:08;;;;;;;20.23;11.70;;;;;;;1.22;70.13;93982.03;5112626;28;20412;-34
2022/02/14 04:02:34;;;;;;;17.17;12.00;;;;;;;1.16;69.95;93979.25;5111809;28;20084;-36
2022/02/14 04:04:59;;;;;;;24.42;14.15;;;;;;;0.87;71.47;93973.16;5112937;28;20031;-38
2022/02/14 04:07:25;;;;;;;26.05;13.57;;;;;;;0.99;71.24;93985.69;5112822;28;20028;-35
2022/02/14 04:09:50;;;;;;;20.73;12.60;;;;;;;1.15;70.69;93972.28;5112816;28;20019;-37
2022/02/14 04:12:15;;;;;;;22.00;9.65;;;;;;;1.25;71.02;93976.41;5112765;28;20020;-35
2022/02/14 04:14:41;;;;;;;22.52;13.80;;;;;;;1.08;70.35;93971.97;5112525;28;20027;-36
2022/02/14 04:17:06;;;;;;;20.75;12.60;;;;;;;1.16;70.16;93971.09;5112667;28;20028;-36
2022/02/14 04:19:32;;;;;;;21.08;13.23;;;;;;;1.19;70.55;93969.38;5112304;28;20497;-36
2022/02/14 04:21:57;;;;;;;22.25;13.63;;;;;;;1.08;70.65;93975.44;5112293;28;20027;-34
2022/02/14 04:24:23;;;;;;;25.83;15.13;;;;;;;1.08;70.92;93971.97;5112196;28;20020;-36
2022/02/14 04:26:48;;;;;;;20.45;13.00;;;;;;;1.15;70.83;93972.28;5112086;28;20027;-34
2022/02/14 04:29:13;;;;;;;16.27;11.85;;;;;;;1.28;70.14;93980.13;5112082;28;20024;-37
2022/02/14 04:31:39;;;;;;;22.35;13.88;;;;;;;1.33;70.03;93974.75;5112149;28;20030;-37
2022/02/14 04:34:04;;;;;;;18.27;11.13;;;;;;;1.17;70.08;93980.72;5112291;28;20030;-38
2022/02/14 04:36:30;;;;;;;18.67;11.80;;;;;;;1.46;70.92;93985.28;5104373;28;20012;-35
2022/02/14 04:38:55;;;;;;;19.05;11.48;;;;;;;1.51;69.85;93979.19;5091480;28;20433;-37
2022/02/14 04:41:20;;;;;;;16.48;11.77;;;;;;;1.52;69.76;93978.69;5091813;28;20395;-38
2022/02/14 04:43:46;;;;;;;17.52;10.30;;;;;;;1.43;70.30;93981.53;5091386;28;20032;-39
2022/02/14 04:46:11;;;;;;;14.73;10.05;;;;;;;1.53;69.76;93982.91;5091249;28;20031;-37
2022/02/14 04:48:37;;;;;;;18.63;10.98;;;;;;;1.52;69.75;93973.25;5091489;28;20024;-35
2022/02/14 04:51:03;;;;;;;13.48;9.80;;;;;;;1.45;69.22;93970.19;5092495;28;20028;-33
2022/02/14 04:53:28;;;;;;;16.23;10.35;;;;;;;1.57;69.71;93971.81;5110843;28;20032;-33
2022/02/14 04:55:53;;;;;;;15.38;10.57;;;;;;;1.67;69.63;93973.16;5111616;28;20027;-34
2022/02/14 04:58:19;;;;;;;14.55;10.40;;;;;;;1.69;69.89;93975.41;5111634;28;20088;-34
2022/02/14 05:00:44;;;;;;;15.48;10.23;;;;;;;1.72;69.32;93979.88;5111535;28;20031;-39
2022/02/14 05:03:11;;;;;;;18.52;10.90;;;;;;;1.72;69.25;93979.88;5111545;28;20035;-37
2022/02/14 05:05:36;;;;;;;18.42;10.35;;;;;;;1.64;69.62;93970.66;5111797;28;20055;-36
2022/02/14 05:08:02;;;;;;;16.55;11.10;;;;;;;1.66;70.05;93968.94;5111624;28;20031;-34
2022/02/14 05:10:27;;;;;;;22.40;12.13;;;;;;;1.68;69.96;93971.94;5111393;28;20033;-35
2022/02/14 05:12:52;;;;;;;17.35;11.00;;;;;;;1.73;70.07;93971.25;5111329;27;20047;-33
2022/02/14 05:15:18;;;;;;;23.80;11.85;;;;;;;1.77;69.49;93971.03;5111394;28;20023;-34
2022/02/14 05:17:43;;;;;;;19.52;12.20;;;;;;;1.88;69.79;93968.44;5111502;28;20019;-33
2022/02/14 05:20:09;;;;;;;19.00;11.20;;;;;;;1.89;69.49;93980.81;5111302;28;20027;-32
2022/02/14 05:22:35;;;;;;;18.40;11.63;;;;;;;1.82;69.86;93986.69;5111407;28;20036;-34
2022/02/14 05:25:00;;;;;;;28.67;14.27;;;;;;;1.54;70.51;93987.13;5111112;28;20413;-36
2022/02/14 05:27:26;;;;;;;26.40;14.75;;;;;;;1.52;70.73;93975.97;5111035;28;20172;-33
2022/02/14 05:29:51;;;;;;;23.67;14.98;;;;;;;1.37;70.26;93967.13;5111282;28;20024;-33
2022/02/14 05:32:16;;;;;;;31.60;16.67;;;;;;;1.36;69.61;93954.00;5111281;28;20019;-34
2022/02/14 05:34:42;;;;;;;25.13;14.43;;;;;;;1.47;70.07;93982.09;5109677;28;20024;-33
2022/02/14 05:37:08;;;;;;;41.60;19.77;;;;;;;1.38;70.96;93976.06;5097738;28;20024;-35
2022/02/14 05:39:34;;;;;;;39.08;19.42;;;;;;;1.22;69.57;93949.38;5090418;28;20196;-33
2022/02/14 05:42:00;;;;;;;19.95;10.32;;;;;;;1.40;70.05;93973.59;5090792;28;20413;-32
2022/02/14 05:44:25;;;;;;;22.83;12.60;;;;;;;1.50;69.39;93964.06;5090512;28;20032;-33
2022/02/14 05:46:51;;;;;;;16.73;11.45;;;;;;;1.34;70.08;93954.47;5090663;28;20107;-33
2022/02/14 05:49:16;;;;;;;15.25;10.02;;;;;;;1.70;70.53;93974.94;5090708;28;20047;-34
2022/02/14 05:51:42;;;;;;;154.07;58.88;;;;;;;1.65;70.09;93980.28;5090366;28;20028;-32
2022/02/14 05:54:07;;;;;;;176.00;67.13;;;;;;;1.58;71.56;93988.91;5090310;28;20024;-34
2022/02/14 05:56:33;;;;;;;103.55;44.97;;;;;;;1.45;72.07;93986.53;5090674;28;20050;-35
2022/02/14 05:59:00;;;;;;;123.15;47.22;;;;;;;1.57;70.56;93979.97;5090623;28;20428;-33
2022/02/14 06:01:25;;;;;;;25.27;16.33;;;;;;;1.39;70.10;93974.81;5089565;28;20035;-33
2022/02/14 06:03:51;;;;;;;21.13;13.02;;;;;;;1.47;69.84;93965.03;5090565;28;20028;-32
2022/02/14 06:06:16;;;;;;;14.73;9.68;;;;;;;1.57;70.24;93979.22;5090110;28;20028;-33
2022/02/14 06:08:42;;;;;;;19.08;11.98;;;;;;;1.15;70.11;93926.06;5090295;28;20035;-35
2022/02/14 06:11:07;;;;;;;31.98;17.15;;;;;;;1.44;70.55;93969.44;5090246;28;20035;-37
2022/02/14 06:13:33;;;;;;;26.13;15.65;;;;;;;1.44;71.07;93972.16;5090445;28;20023;-39
2022/02/14 06:15:58;;;;;;;21.15;11.30;;;;;;;1.43;70.44;93967.94;5090203;28;20390;-38
2022/02/14 06:18:24;;;;;;;22.60;12.68;;;;;;;1.67;70.51;93972.44;5090103;28;20028;-37
2022/02/14 06:20:49;;;;;;;19.25;11.90;;;;;;;1.81;70.27;93982.47;5090427;28;20024;-37
2022/02/14 06:23:14;;;;;;;26.23;15.68;;;;;;;1.83;69.74;93971.84;5090017;28;20047;-39
2022/02/14 06:25:40;;;;;;;24.58;13.50;;;;;;;1.98;69.02;93975.22;5090057;28;20024;-39
2022/02/14 06:28:06;;;;;;;23.27;13.25;;;;;;;2.15;68.61;93976.09;5089877;28;20063;-37
2022/02/14 06:30:32;;;;;;;12.55;9.35;;;;;;;2.11;67.77;93975.59;5089986;28;20024;-38
2022/02/14 06:32:58;;;;;;;19.90;9.65;;;;;;;2.21;68.23;93982.34;5090335;28;20035;-38
2022/02/14 06:35:23;;;;;;;15.35;10.32;;;;;;;2.02;68.91;93981.19;5090243;28;20079;-39
2022/02/14 06:37:49;;;;;;;16.02;10.32;;;;;;;1.88;69.47;93996.41;5089644;28;20072;-36
2022/02/14 06:40:14;;;;;;;12.07;7.97;;;;;;;1.72;69.37;93993.50;5090179;28;20032;-35
2022/02/14 06:42:40;;;;;;;15.32;10.77;;;;;;;1.39;68.87;93963.94;5090208;28;20016;-34
2022/02/14 06:45:06;;;;;;;19.23;8.85;;;;;;;1.39;69.65;93985.69;5090162;28;20028;-35
2022/02/14 06:47:32;;;;;;;13.02;9.07;;;;;;;1.46;69.61;93986.03;5089595;28;20524;-35
2022/02/14 06:49:57;;;;;;;16.42;9.80;;;;;;;1.58;69.31;93997.06;5089856;28;20028;-34
2022/02/14 06:52:23;;;;;;;37.65;18.13;;;;;;;1.80;69.29;93994.59;5090080;28;20092;-37
2022/02/14 06:54:48;;;;;;;42.05;17.90;;;;;;;2.28;69.12;93996.31;5090069;28;20099;-34
2022/02/14 06:57:14;;;;;;;24.73;13.60;;;;;;;2.59;67.34;93998.31;5090034;28;20016;-38
2022/02/14 06:59:40;;;;;;;27.30;12.27;;;;;;;2.79;65.80;94000.19;5090225;28;20401;-37
2022/02/14 07:02:05;;;;;;;16.63;9.73;;;;;;;2.83;65.41;93997.97;5089724;28;20071;-38
2022/02/14 07:04:31;;;;;;;18.92;9.85;;;;;;;2.92;65.81;93995.78;5089979;28;20058;-38
2022/02/14 07:06:56;;;;;;;18.05;10.90;;;;;;;3.00;65.70;94001.56;5089531;28;20031;-34
2022/02/14 07:09:22;;;;;;;22.02;11.40;;;;;;;2.99;65.47;93995.34;5089623;28;20028;-33
2022/02/14 07:11:47;;;;;;;20.17;11.45;;;;;;;3.14;64.67;93999.91;5090132;28;20035;-33
2022/02/14 07:14:12;;;;;;;29.60;13.82;;;;;;;3.11;64.13;93988.00;5092110;28;20028;-39
2022/02/14 07:16:39;;;;;;;25.13;13.43;;;;;;;3.27;64.25;94003.69;5092996;28;20016;-37
2022/02/14 07:19:04;;;;;;;34.05;15.90;;;;;;;3.14;64.19;93994.47;5093411;28;20024;-35
2022/02/14 07:21:30;;;;;;;26.52;14.05;;;;;;;3.12;63.92;94000.38;5093464;28;20178;-33
2022/02/14 07:23:55;;;;;;;30.20;16.33;;;;;;;3.16;64.60;94002.91;5093339;28;20020;-38
2022/02/14 07:26:21;;;;;;;26.95;12.88;;;;;;;3.31;63.76;93998.03;5092950;28;20086;-37
2022/02/14 07:28:47;;;;;;;24.33;12.32;;;;;;;3.53;63.47;94000.88;5092943;28;20040;-35
2022/02/14 07:31:13;;;;;;;35.10;13.07;;;;;;;3.77;62.47;93996.47;5092878;28;20031;-34
2022/02/14 07:33:39;;;;;;;18.52;10.88;;;;;;;3.86;61.90;94009.16;5093222;28;20024;-35
2022/02/14 07:36:05;;;;;;;25.70;13.93;;;;;;;3.99;62.90;94001.25;5092805;28;20030;-34
2022/02/14 07:38:31;;;;;;;29.27;13.70;;;;;;;4.42;61.01;93999.84;5092638;28;20571;-33
2022/02/14 07:40:57;;;;;;;16.45;10.18;;;;;;;4.68;59.77;94004.38;5093038;28;20028;-34
2022/02/14 07:43:23;;;;;;;16.42;7.40;;;;;;;4.87;59.85;93994.41;5092751;28;20070;-35
2022/02/14 07:45:49;;;;;;;15.60;8.82;;;;;;;5.41;57.62;94001.03;5112727;28;20031;-34
2022/02/14 07:48:15;;;;;;;19.42;11.30;;;;;;;5.91;56.64;94003.63;5112938;28;20031;-37
2022/02/14 07:50:40;;;;;;;19.10;12.60;;;;;;;6.57;54.18;94000.50;5113021;28;20034;-34
2022/02/14 07:53:09;;;;;;;17.13;10.23;;;;;;;7.22;52.37;93997.75;5112859;28;20031;-35
2022/02/14 07:55:35;;;;;;;12.73;9.48;;;;;;;7.33;50.31;94003.13;5110711;28;20420;-34
2022/02/14 07:58:01;;;;;;;12.48;8.35;;;;;;;7.56;51.87;93998.88;5101376;28;20028;-36
2022/02/14 08:00:26;;;;;;;17.55;9.52;;;;;;;7.64;50.28;93999.06;5092707;28;20390;-35
2022/02/14 08:02:52;;;;;;;14.52;8.07;;;;;;;7.37;49.70;93992.59;5092369;28;20114;-38
2022/02/14 08:05:17;;;;;;;17.80;9.25;;;;;;;7.36;50.32;93988.34;5092253;28;20032;-36
2022/02/14 08:07:43;;;;;;;9.05;6.25;;;;;;;7.23;49.37;93987.50;5091643;28;20024;-37
2022/02/14 08:10:09;;;;;;;9.93;6.47;;;;;;;6.78;49.96;93987.88;5090152;28;20467;-39
2022/02/14 08:12:34;;;;;;;10.15;7.18;;;;;;;6.29;51.18;93982.75;5094784;28;20146;-40
2022/02/14 08:15:01;;;;;;;14.23;7.47;;;;;;;6.22;51.23;93984.03;5097392;28;20038;-39
2022/02/14 08:17:26;;;;;;;12.40;7.65;;;;;;;6.17;52.35;93981.34;5090034;28;20024;-39
2022/02/14 08:19:52;;;;;;;10.50;6.38;;;;;;;6.21;51.93;93985.28;5089912;28;20031;-39
2022/02/14 08:22:17;;;;;;;10.63;6.88;;;;;;;6.22;51.17;93980.53;5093904;28;20039;-40
2022/02/14 08:24:43;;;;;;;14.52;7.15;;;;;;;6.27;51.45;93977.78;5103390;28;20050;-39
2022/02/14 08:27:08;;;;;;;12.10;6.18;;;;;;;6.29;52.46;93975.28;5110359;28;20034;-39
2022/02/14 08:29:35;;;;;;;8.30;6.57;;;;;;;5.90;53.48;93975.47;5110615;28;20024;-40
2022/02/14 08:32:00;;;;;;;14.52;7.13;;;;;;;5.31;53.94;93943.06;5110286;28;20028;-41
2022/02/14 08:34:28;;;;;;;10.13;6.32;;;;;;;5.18;54.23;93978.44;5109765;28;20741;-39
2022/02/14 08:36:54;;;;;;;8.35;6.72;;;;;;;5.09;54.05;93967.75;5109556;28;20027;-40
2022/02/14 08:39:19;;;;;;;10.90;7.38;;;;;;;4.69;56.54;93975.75;5109743;28;20505;-38
2022/02/14 08:41:46;;;;;;;14.55;7.55;;;;;;;4.39;56.92;93970.78;5091892;28;20491;-38
2022/02/14 08:44:12;;;;;;;10.52;6.13;;;;;;;4.57;56.39;93978.50;5089471;28;20066;-40
2022/02/14 08:46:39;;;;;;;9.02;6.05;;;;;;;4.59;56.28;93947.94;5089334;28;20477;-40
2022/02/14 08:49:04;;;;;;;10.38;5.88;;;;;;;4.65;57.19;93950.66;5089418;28;20441;-41
2022/02/14 08:51:31;;;;;;;9.30;5.90;;;;;;;5.04;55.57;93971.25;5091468;28;20048;-40
2022/02/14 08:53:58;;;;;;;9.70;6.70;;;;;;;5.04;56.27;93965.03;5110083;28;20028;-40
2022/02/14 08:56:24;;;;;;;13.95;6.97;;;;;;;5.05;55.30;93961.03;5110827;28;20019;-39
2022/02/14 08:58:49;;;;;;;12.98;6.93;;;;;;;5.16;55.72;93966.50;5111645;28;20478;-40
2022/02/14 09:01:18;;;;;;;10.52;6.70;;;;;;;5.16;55.71;93969.22;5111493;27;20143;-40
2022/02/14 09:03:44;;;;;;;12.00;6.50;;;;;;;4.82;57.13;93973.25;5111893;28;20479;-40
2022/02/14 09:06:10;;;;;;;14.35;7.55;;;;;;;4.68;58.76;93985.22;5111707;28;20417;-39
2022/02/14 09:08:36;;;;;;;15.13;7.65;;;;;;;4.56;60.41;93976.25;5111422;28;20045;-38
2022/02/14 09:11:03;;;;;;;10.35;6.97;;;;;;;4.31;60.65;93983.44;5111654;28;20123;-39
2022/02/14 09:13:31;;;;;;;12.95;6.82;;;;;;;4.34;61.51;93982.47;5111633;28;20031;-38
2022/02/14 09:15:56;;;;;;;14.40;8.90;;;;;;;4.28;63.26;93984.44;5111579;28;20047;-38
2022/02/14 09:18:22;;;;;;;15.50;9.50;;;;;;;4.48;64.06;93991.69;5111260;28;20066;-38
2022/02/14 09:20:47;;;;;;;15.43;8.65;;;;;;;4.35;64.18;93988.69;5111523;28;20084;-40
2022/02/14 09:23:14;;;;;;;14.90;9.52;;;;;;;4.30;66.25;93987.44;5111154;28;20030;-39
2022/02/14 09:25:40;;;;;;;14.15;9.65;;;;;;;3.98;66.89;93993.56;5111141;28;20528;-40
2022/02/14 09:28:06;;;;;;;17.60;10.75;;;;;;;4.07;66.14;93980.41;5110912;28;20032;-38
2022/02/14 09:30:31;;;;;;;15.13;8.55;;;;;;;3.95;67.48;93994.53;5111387;28;20054;-39
2022/02/14 09:32:57;;;;;;;18.17;10.93;;;;;;;3.88;67.42;93979.38;5111256;28;20504;-40
2022/02/14 09:35:26;;;;;;;13.65;9.25;;;;;;;3.94;67.39;93996.56;5108810;28;20028;-37
2022/02/14 09:38:00;;;;;;;19.23;12.33;;;;;;;3.99;68.35;93993.06;5107841;28;20104;-39
2022/02/14 09:40:27;;;;;;;13.15;9.20;;;;;;;3.96;66.22;93982.38;5110890;28;20047;-38
2022/02/14 09:42:54;;;;;;;20.95;13.43;;;;;;;4.00;67.70;93988.34;5111191;28;20037;-40
2022/02/14 09:45:22;;;;;;;26.55;15.30;;;;;;;4.14;68.48;93995.56;5110973;28;20015;-38
2022/02/14 09:47:55;;;;;;;30.20;17.02;;;;;;;3.77;69.36;93993.00;5111012;28;20416;-39
2022/02/14 09:50:20;;;;;;;45.15;23.05;;;;;;;4.08;69.32;93986.63;5110886;28;20032;-38
2022/02/14 09:52:46;;;;;;;38.22;20.92;;;;;;;3.95;70.35;93989.84;5110956;28;20029;-39
2022/02/14 09:55:11;;;;;;;26.45;16.42;;;;;;;3.96;70.41;93980.41;5111001;28;20019;-39
2022/02/14 09:57:37;;;;;;;26.27;16.08;;;;;;;4.34;70.48;93973.50;5110688;28;20019;-39
2022/02/14 10:00:04;;;;;;;29.70;14.35;;;;;;;4.62;69.23;93974.28;5110697;28;20024;-39
2022/02/14 10:02:32;;;;;;;20.92;12.23;;;;;;;4.81;68.78;93974.53;5110955;28;20024;-38
2022/02/14 10:05:12;;;;;;;15.75;11.52;;;;;;;5.02;68.34;93981.22;5110919;28;20416;-39
2022/02/14 10:07:46;;;;;;;16.30;12.20;;;;;;;5.18;67.32;93980.41;5110910;28;20409;-39
2022/02/14 10:10:15;;;;;;;20.90;12.13;;;;;;;5.22;67.69;93967.22;5110625;28;20080;-40
2022/02/14 10:12:44;;;;;;;20.73;11.35;;;;;;;5.34;67.57;93966.72;5110675;28;20516;-39
2022/02/14 10:15:10;;;;;;;18.77;11.38;;;;;;;5.54;67.05;93962.16;5110943;28;20024;-37
2022/02/14 10:17:59;;;;;;;23.27;14.18;;;;;;;5.62;65.99;93947.44;5110720;28;20023;-38
2022/02/14 10:20:27;;;;;;;21.77;14.30;;;;;;;5.44;67.56;93950.72;5110750;28;20047;-38
2022/02/14 10:23:08;;;;;;;15.93;11.35;;;;;;;5.52;67.14;93950.97;5110699;28;20016;-37
2022/02/14 10:25:38;;;;;;;15.50;11.07;;;;;;;5.56;66.91;93946.72;5110730;28;20043;-38
2022/02/14 10:28:13;;;;;;;21.48;11.13;;;;;;;5.84;67.66;93947.38;5088463;28;20020;-39
2022/02/14 10:31:08;;;;;;;21.75;14.18;;;;;;;6.25;65.71;93946.63;5087996;28;20036;-38
2022/02/14 10:33:49;;;;;;;19.83;9.90;;;;;;;6.56;62.59;93938.66;5099461;28;20032;-37
2022/02/14 10:36:23;;;;;;;14.88;8.50;;;;;;;7.01;60.05;93936.28;5089945;28;20024;-40
2022/02/14 10:38:49;;;;;;;15.10;8.75;;;;;;;7.69;59.06;93931.56;5103142;28;20127;-40
2022/02/14 10:41:15;;;;;;;12.40;7.65;;;;;;;8.44;54.55;93929.56;5107593;28;20119;-38
2022/02/14 10:43:41;;;;;;;11.55;7.75;;;;;;;8.66;54.56;93920.97;5107645;28;20024;-38
2022/02/14 10:46:07;;;;;;;15.80;9.10;;;;;;;8.40;53.44;93919.59;5106681;28;20031;-39
2022/02/14 10:48:39;;;;;;;16.52;10.60;;;;;;;9.24;54.00;93909.94;5111645;28;20106;-40
2022/02/14 10:51:05;;;;;;;15.07;7.65;;;;;;;9.61;53.28;93910.47;5112621;28;20035;-38
2022/02/14 10:53:42;;;;;;;11.27;7.43;;;;;;;9.45;51.48;93903.28;5108317;28;20038;-40
2022/02/14 10:56:08;;;;;;;13.63;8.90;;;;;;;8.99;52.46;93909.38;5101547;28;20074;-39
2022/02/14 10:58:33;;;;;;;13.10;8.38;;;;;;;8.27;53.92;93897.53;5102068;28;20058;-37
2022/02/14 11:00:59;;;;;;;13.10;8.90;;;;;;;7.98;56.01;93900.44;5111232;28;20553;-37
2022/02/14 11:03:25;;;;;;;12.98;9.18;;;;;;;7.97;56.21;93896.22;5110315;28;20532;-38
2022/02/14 11:05:52;;;;;;;10.90;8.50;;;;;;;8.28;56.20;93893.53;5102826;28;20055;-39
2022/02/14 11:08:20;;;;;;;13.10;9.82;;;;;;;8.38;56.24;93880.84;5090242;28;20454;-36
2022/02/14 11:10:49;;;;;;;12.18;8.65;;;;;;;8.91;54.39;93881.72;5090306;28;20036;-40
2022/02/14 11:13:15;;;;;;;15.53;10.20;;;;;;;9.31;54.79;93874.25;5090530;28;20115;-37
2022/02/14 11:15:42;;;;;;;18.40;11.32;;;;;;;9.56;55.63;93869.22;5089279;28;20102;-38
2022/02/14 11:18:18;;;;;;;13.15;8.35;;;;;;;9.87;54.60;93873.84;5090739;28;20020;-38
2022/02/14 11:20:46;;;;;;;10.15;7.70;;;;;;;9.79;51.75;93870.25;5090691;28;20046;-38
2022/02/14 11:23:14;;;;;;;14.43;9.23;;;;;;;9.90;55.05;93865.25;5090375;28;20026;-41
2022/02/14 11:26:15;;;;;;;14.93;10.05;;;;;;;11.20;52.09;93863.13;5089697;28;20024;-40